Time;durP1;ratioP1;P1;durP2;ratioP2;P2;SDS_P1;SDS_P2;PMS_P1;PMS_P2;Temp;Humidity;BMP_temperature;BMP_pressure;BME280_temperature;BME280_humidity;BME280_pressure;Samples;Min_cycle;Max_cycle;Signal;HPM_P1;HPM_P2
2023/09/26 04:45:38;;;;;;;;;4.33;4.33;;;;;20.59;55.16;101614.66;5063376;27;45577;-74
2023/09/26 04:48:04;;;;;;;;;4.00;2.67;;;;;20.77;54.59;101625.72;5088446;27;45560;-74
2023/09/26 04:50:30;;;;;;;;;3.00;3.00;;;;;20.98;54.37;101624.09;5059977;28;45589;-73
2023/09/26 04:52:56;;;;;;;;;2.67;2.67;;;;;21.21;54.48;101619.41;5053201;28;45756;-74
2023/09/26 04:55:22;;;;;;;;;3.00;3.00;;;;;21.44;54.08;101622.00;5051880;27;46743;-72
2023/09/26 04:57:47;;;;;;;;;2.00;2.00;;;;;21.69;53.63;101617.13;5056928;27;45679;-72
2023/09/26 05:00:23;;;;;;;;;3.33;3.33;;;;;21.91;53.44;101613.41;5058425;27;45336;-73
2023/09/26 05:02:51;;;;;;;;;2.33;2.33;;;;;22.17;52.85;101609.38;5056677;28;45571;-73
2023/09/26 05:05:17;;;;;;;;;4.00;3.33;;;;;22.37;52.59;101603.00;5056896;28;46103;-73
2023/09/26 05:07:46;;;;;;;;;3.67;3.67;;;;;22.61;52.53;101607.19;5061783;27;45735;-75
2023/09/26 05:10:12;;;;;;;;;2.33;2.33;;;;;22.82;52.36;101608.06;5067660;28;45558;-75
2023/09/26 05:12:40;;;;;;;;;4.33;3.67;;;;;22.99;51.93;101604.63;5067224;28;45673;-75
2023/09/26 05:15:09;;;;;;;;;3.67;3.67;;;;;23.18;51.86;101600.19;5066123;27;45665;-74
2023/09/26 05:17:34;;;;;;;;;5.67;4.33;;;;;23.33;51.29;101599.78;5061304;28;45461;-74
2023/09/26 05:20:00;;;;;;;;;2.67;2.67;;;;;23.49;51.27;101605.41;5067718;28;45350;-73
2023/09/26 05:22:25;;;;;;;;;3.67;3.67;;;;;23.64;51.00;101602.22;5066739;28;45569;-74
2023/09/26 05:24:50;;;;;;;;;3.00;3.00;;;;;23.77;50.57;101601.88;5058954;28;45598;-73
2023/09/26 05:27:15;;;;;;;;;4.00;3.00;;;;;23.90;50.47;101610.53;5054227;28;45567;-73
2023/09/26 05:29:41;;;;;;;;;3.67;3.67;;;;;23.99;50.41;101606.06;5066404;28;45394;-76
2023/09/26 05:32:06;;;;;;;;;3.00;3.00;;;;;24.08;49.95;101609.72;5066584;28;45768;-79
2023/09/26 05:34:32;;;;;;;;;4.00;4.00;;;;;24.12;49.46;101586.78;5060786;28;50128;-74
2023/09/26 05:36:57;;;;;;;;;3.67;3.00;;;;;24.27;48.94;101608.78;5069037;28;45386;-75
2023/09/26 05:39:22;;;;;;;;;3.33;3.33;;;;;24.33;48.97;101601.91;5066200;28;45454;-75
2023/09/26 05:41:48;;;;;;;;;4.00;3.33;;;;;24.40;48.69;101607.56;5059162;27;45431;-75
2023/09/26 05:44:13;;;;;;;;;6.00;3.67;;;;;24.45;48.73;101608.78;5073554;27;45454;-78
2023/09/26 05:46:39;;;;;;;;;2.00;2.00;;;;;24.51;48.42;101607.34;5075222;27;45393;-72
2023/09/26 05:49:04;;;;;;;;;3.67;3.67;;;;;24.52;48.05;101606.31;5083856;27;45400;-73
2023/09/26 05:51:29;;;;;;;;;4.33;4.33;;;;;24.60;48.12;101605.53;5089269;27;45775;-73
2023/09/26 05:53:55;;;;;;;;;6.00;4.33;;;;;24.59;47.94;101601.13;5084999;27;46482;-74
2023/09/26 05:56:20;;;;;;;;;4.67;4.67;;;;;24.65;48.06;101602.38;5069307;27;45758;-77
2023/09/26 06:35:24;;;;;;;;;5.33;3.67;;;;;22.40;51.11;101601.03;5094589;27;45665;-73
2023/09/26 06:37:49;;;;;;;;;4.00;4.00;;;;;22.46;51.18;101601.31;5090138;27;45461;-74
2023/09/26 06:40:15;;;;;;;;;4.00;4.00;;;;;22.59;51.23;101595.66;5046234;27;45467;-73
2023/09/26 06:42:41;;;;;;;;;4.67;4.67;;;;;22.70;50.85;101597.38;5028964;27;46146;-76
2023/09/26 06:45:07;;;;;;;;;4.33;4.00;;;;;22.84;50.85;101601.50;5045571;27;45706;-74
2023/09/26 06:47:33;;;;;;;;;3.00;3.00;;;;;23.01;50.25;101607.22;5057541;27;45774;-74
2023/09/26 06:49:58;;;;;;;;;4.67;4.00;;;;;23.11;50.35;101601.75;5063551;27;45455;-74
2023/09/26 06:52:24;;;;;;;;;4.33;2.67;;;;;23.26;50.10;101608.44;5080883;27;45516;-76
2023/09/26 06:54:50;;;;;;;;;4.00;4.00;;;;;23.42;49.74;101615.97;5046074;28;46105;-74
2023/09/26 06:57:20;;;;;;;;;4.33;4.33;;;;;23.54;49.95;101610.41;5046302;28;45357;-73
2023/09/26 06:59:49;;;;;;;;;3.67;3.00;;;;;23.69;49.56;101610.75;5068531;27;45338;-73
2023/09/26 07:02:15;;;;;;;;;5.67;5.00;;;;;23.80;49.48;101607.00;5049647;27;45814;-74
2023/09/26 07:04:40;;;;;;;;;4.33;3.67;;;;;23.90;49.43;101612.38;5065896;27;46007;-74
2023/09/26 07:07:06;;;;;;;;;6.00;4.67;;;;;23.98;49.36;101607.06;5043126;28;45971;-74
2023/09/26 07:09:31;;;;;;;;;4.00;2.33;;;;;24.06;49.25;101609.88;5042461;28;45432;-72
2023/09/26 07:11:56;;;;;;;;;5.00;3.00;;;;;24.19;48.98;101614.97;5043174;27;45831;-72
2023/09/26 07:14:22;;;;;;;;;4.00;4.00;;;;;24.26;48.83;101611.66;5046413;27;45931;-72
2023/09/26 07:16:47;;;;;;;;;2.33;2.33;;;;;24.41;48.70;101617.41;5081536;27;45848;-72
2023/09/26 07:19:13;;;;;;;;;3.67;3.67;;;;;24.53;49.16;101615.31;5044217;27;45688;-73
2023/09/26 07:21:38;;;;;;;;;4.67;4.67;;;;;24.58;48.83;101613.00;5042251;28;45518;-73
2023/09/26 07:24:04;;;;;;;;;4.00;3.67;;;;;24.69;48.35;101611.91;5040168;28;45934;-74
2023/09/26 07:26:32;;;;;;;;;3.00;3.00;;;;;24.71;48.68;101602.63;5051839;27;45731;-74
2023/09/26 07:28:57;;;;;;;;;3.00;3.00;;;;;24.86;48.53;101610.22;5052196;27;45594;-74
2023/09/26 07:31:23;;;;;;;;;4.00;4.00;;;;;24.93;48.79;101607.75;5071346;27;45717;-74
2023/09/26 07:33:49;;;;;;;;;4.33;4.33;;;;;24.98;48.66;101610.84;5041888;28;45668;-73
2023/09/26 07:36:15;;;;;;;;;3.33;3.33;;;;;25.04;48.30;101622.91;5031788;28;45700;-74
2023/09/26 07:38:40;;;;;;;;;4.00;4.00;;;;;25.12;48.05;101642.88;5045426;27;45511;-73
2023/09/26 07:41:06;;;;;;;;;5.33;4.00;;;;;25.18;48.44;101635.09;5077904;27;45532;-72
2023/09/26 07:43:35;;;;;;;;;3.33;2.67;;;;;25.22;47.91;101626.47;5048848;27;45519;-73
2023/09/26 07:46:08;;;;;;;;;3.00;3.00;;;;;25.28;48.12;101622.25;5015846;28;45506;-73
2023/09/26 07:48:34;;;;;;;;;4.00;4.00;;;;;25.32;47.22;101623.66;5038909;27;45444;-75
2023/09/26 07:51:01;;;;;;;;;3.00;3.00;;;;;25.33;46.70;101635.34;5030305;28;45471;-75
2023/09/26 07:53:26;;;;;;;;;4.00;4.00;;;;;25.33;46.43;101632.63;5037795;27;46026;-75
2023/09/26 07:55:55;;;;;;;;;6.00;6.00;;;;;25.30;46.08;101632.97;5082989;27;45678;-75
2023/09/26 07:58:20;;;;;;;;;3.33;3.33;;;;;25.31;46.15;101634.69;5013893;28;45747;-74
2023/09/26 08:00:45;;;;;;;;;4.00;4.00;;;;;25.27;46.41;101636.88;5010806;27;45443;-74
2023/09/26 08:03:11;;;;;;;;;4.00;4.00;;;;;25.22;46.36;101625.63;5027557;27;45935;-74
2023/09/26 08:05:36;;;;;;;;;5.33;4.00;;;;;25.17;46.21;101622.53;5063682;27;45440;-75
2023/09/26 08:08:04;;;;;;;;;3.33;3.33;;;;;25.23;45.97;101630.91;5072073;27;45368;-74
2023/09/26 08:10:31;;;;;;;;;4.33;4.00;;;;;25.21;46.17;101638.34;5031583;27;46568;-75
2023/09/26 08:12:57;;;;;;;;;6.00;6.00;;;;;25.23;46.41;101638.19;5015909;27;47259;-76
2023/09/26 08:15:22;;;;;;;;;6.00;5.00;;;;;25.23;46.09;101633.63;5028898;28;45467;-74
2023/09/26 08:17:48;;;;;;;;;3.00;3.00;;;;;25.23;46.06;101635.47;5033693;27;45508;-75
2023/09/26 08:20:14;;;;;;;;;4.67;3.00;;;;;25.25;46.13;101636.16;5059572;27;45325;-75
2023/09/26 08:22:39;;;;;;;;;4.33;4.33;;;;;25.21;46.39;101630.19;5057283;27;47175;-75
2023/09/26 08:25:05;;;;;;;;;2.00;2.00;;;;;25.26;45.91;101641.44;5012523;28;45416;-75
2023/09/26 08:27:31;;;;;;;;;4.00;4.00;;;;;25.28;45.88;101646.72;5021484;28;45597;-75
2023/09/26 08:29:59;;;;;;;;;1.33;1.33;;;;;25.26;45.90;101635.16;5031485;27;45331;-75
2023/09/26 08:32:25;;;;;;;;;6.00;4.00;;;;;25.28;45.79;101638.56;5080991;27;46863;-76
2023/09/26 08:34:50;;;;;;;;;2.67;2.67;;;;;25.26;45.77;101648.75;5062764;27;45490;-76
2023/09/26 08:37:15;;;;;;;;;4.00;3.67;;;;;25.30;45.71;101641.13;5027041;27;45605;-74
2023/09/26 08:39:43;;;;;;;;;4.33;3.33;;;;;25.30;45.60;101636.53;5032116;27;45460;-75
2023/09/26 08:42:15;;;;;;;;;3.00;3.00;;;;;25.30;45.54;101630.25;5023144;28;45420;-75
2023/09/26 08:44:41;;;;;;;;;2.67;2.67;;;;;25.32;45.51;101637.25;5048410;27;45719;-75
2023/09/26 08:47:06;;;;;;;;;4.00;3.00;;;;;25.25;45.37;101623.44;5045418;27;45786;-75
2023/09/26 08:49:33;;;;;;;;;4.00;4.00;;;;;25.33;45.59;101632.63;5047242;28;45430;-74
2023/09/26 08:51:58;;;;;;;;;4.33;4.33;;;;;25.31;45.78;101621.97;5030384;28;46475;-74
2023/09/26 08:54:23;;;;;;;;;4.67;4.00;;;;;25.33;45.95;101621.78;5030569;28;45721;-73
2023/09/26 08:56:50;;;;;;;;;2.67;2.67;;;;;25.34;45.83;101612.63;5033500;27;45372;-73
2023/09/26 08:59:18;;;;;;;;;5.00;2.67;;;;;25.34;45.47;101612.63;5072291;27;45551;-73
2023/09/26 09:01:43;;;;;;;;;3.00;3.00;;;;;25.33;45.66;101621.78;5043051;27;45523;-75
2023/09/26 09:04:09;;;;;;;;;2.00;2.00;;;;;25.31;45.52;101610.22;5030648;28;45636;-75
2023/09/26 09:06:35;;;;;;;;;2.00;2.00;;;;;25.32;45.56;101612.78;5030480;27;45355;-75
2023/09/26 09:09:10;;;;;;;;;4.33;2.67;;;;;25.29;45.31;101602.22;5026147;27;45550;-74
2023/09/26 09:11:35;;;;;;;;;4.00;3.00;;;;;25.29;45.53;101604.94;5025413;27;46264;-75
2023/09/26 09:14:00;;;;;;;;;2.67;2.00;;;;;25.31;45.60;101602.94;5040454;27;45474;-74
2023/09/26 09:16:26;;;;;;;;;2.67;2.67;;;;;25.31;45.71;101602.94;5029298;28;45711;-74
2023/09/26 09:18:57;;;;;;;;;3.00;3.00;;;;;25.29;45.37;101595.97;5029007;28;45472;-74
2023/09/26 09:21:29;;;;;;;;;2.67;2.67;;;;;25.31;45.45;101592.06;5030961;28;45547;-74
2023/09/26 09:23:57;;;;;;;;;3.00;3.00;;;;;25.32;45.10;101595.63;5065793;27;45471;-74
2023/09/26 10:20:59;;;;;;;;;3.00;3.00;;;;;22.54;50.85;101584.41;5074460;27;45859;-74
2023/09/26 10:23:24;;;;;;;;;4.33;3.00;;;;;22.64;50.64;101582.56;5065647;27;45902;-74
2023/09/26 10:25:50;;;;;;;;;4.00;4.00;;;;;22.78;50.61;101583.13;5059148;28;45748;-74
2023/09/26 10:28:16;;;;;;;;;3.00;3.00;;;;;22.93;50.24;101580.00;5067779;28;45676;-75
2023/09/26 10:30:45;;;;;;;;;3.33;3.33;;;;;23.11;50.22;101591.81;5067773;28;45509;-75
2023/09/26 10:33:12;;;;;;;;;4.00;3.00;;;;;23.28;49.79;101589.31;5062331;28;45407;-75
2023/09/26 10:35:44;;;;;;;;;4.00;4.00;;;;;23.46;49.54;101588.59;5058016;28;45383;-76
2023/09/26 10:38:18;;;;;;;;;5.33;4.33;;;;;23.63;49.37;101589.69;5065769;28;45519;-77
2023/09/26 10:40:45;;;;;;;;;3.67;3.67;;;;;23.78;48.86;101593.59;5064812;27;47218;-75
2023/09/26 10:43:10;;;;;;;;;3.00;3.00;;;;;23.94;49.05;101584.81;5062479;28;45588;-72
2023/09/26 10:45:35;;;;;;;;;3.33;2.00;;;;;24.10;48.27;101587.94;5056888;28;45511;-72
2023/09/26 10:48:05;;;;;;;;;3.00;3.00;;;;;24.21;48.25;101574.97;5060655;28;45791;-72
2023/09/26 10:50:31;;;;;;;;;3.00;3.00;;;;;24.33;48.09;101572.88;5048838;28;45588;-72
2023/09/26 10:52:57;;;;;;;;;2.33;2.33;;;;;24.44;47.83;101566.41;5066869;28;45501;-73
2023/09/26 10:55:22;;;;;;;;;4.00;4.00;;;;;24.54;47.76;101568.19;5066112;28;45631;-72
2023/09/26 10:57:51;;;;;;;;;4.00;4.00;;;;;24.64;47.46;101574.38;5063209;27;45535;-73
2023/09/26 11:00:17;;;;;;;;;5.00;3.00;;;;;24.73;47.32;101576.16;5061594;28;46294;-72
2023/09/26 11:02:45;;;;;;;;;3.00;3.00;;;;;24.82;47.21;101577.09;5064550;28;45368;-73
2023/09/26 11:05:12;;;;;;;;;3.33;3.33;;;;;24.91;46.91;101571.75;5068881;28;45430;-73
2023/09/26 11:07:38;;;;;;;;;3.33;3.33;;;;;24.97;46.82;101568.41;5064348;28;45610;-73
2023/09/26 11:10:05;;;;;;;;;5.33;4.00;;;;;25.03;46.83;101556.91;5062452;28;45411;-73
2023/09/26 11:12:32;;;;;;;;;4.00;4.00;;;;;25.11;46.70;101556.97;5057033;28;45657;-75
2023/09/26 11:15:02;;;;;;;;;4.67;4.67;;;;;25.20;46.64;101544.28;5062834;28;45502;-75
2023/09/26 11:17:29;;;;;;;;;6.00;4.00;;;;;25.27;46.63;101526.31;5069135;28;45277;-75
2023/09/26 11:19:57;;;;;;;;;5.00;5.00;;;;;25.35;46.22;101527.38;5078608;27;46350;-75
2023/09/26 11:22:26;;;;;;;;;5.67;4.00;;;;;25.39;46.09;101526.88;5086655;27;45499;-75
2023/09/26 11:25:08;;;;;;;;;5.00;4.67;;;;;25.44;46.03;101533.69;5081972;27;45646;-74
2023/09/26 11:27:39;;;;;;;;;4.00;4.00;;;;;25.50;45.75;101541.22;5088682;27;45579;-72
2023/09/26 11:30:14;;;;;;;;;3.67;3.67;;;;;25.52;46.11;101534.59;5082665;27;46438;-72
2023/09/26 11:32:46;;;;;;;;;4.00;4.00;;;;;25.57;45.71;101531.41;5073561;28;45504;-72
2023/09/26 11:35:14;;;;;;;;;4.33;4.33;;;;;25.59;45.83;101539.41;5071866;28;45631;-74
2023/09/26 11:37:39;;;;;;;;;4.00;4.00;;;;;25.63;45.83;101533.47;5071133;28;45739;-73
2023/09/26 11:40:11;;;;;;;;;5.67;4.00;;;;;25.66;45.55;101532.28;5065091;28;53031;-74
2023/09/26 11:42:47;;;;;;;;;7.33;5.67;;;;;25.69;45.75;101536.53;5059040;28;46447;-72
2023/09/26 11:45:26;;;;;;;;;4.67;4.67;;;;;25.73;45.30;101532.50;5057277;28;45516;-72
2023/09/26 11:47:59;;;;;;;;;3.00;3.00;;;;;25.75;45.36;101557.66;5070291;28;45639;-74
2023/09/26 11:50:26;;;;;;;;;4.67;4.67;;;;;25.77;44.92;101564.63;5069513;28;47486;-73
2023/09/26 11:52:56;;;;;;;;;5.00;5.00;;;;;25.75;45.57;101552.22;5075084;28;45418;-74
2023/09/26 11:55:22;;;;;;;;;5.67;3.33;;;;;25.81;45.27;101564.28;5072769;28;45482;-72
2023/09/26 11:57:51;;;;;;;;;3.33;3.33;;;;;25.83;45.28;101570.44;5075121;28;45579;-72
2023/09/26 12:00:17;;;;;;;;;4.00;4.00;;;;;25.82;45.66;101564.13;5072138;28;46380;-73
2023/09/26 12:02:49;;;;;;;;;3.33;3.33;;;;;25.81;45.38;101540.69;5072545;28;45650;-73
2023/09/26 12:05:17;;;;;;;;;3.33;3.33;;;;;25.84;45.44;101551.25;5070102;27;45543;-72
2023/09/26 12:07:43;;;;;;;;;5.00;4.00;;;;;25.85;45.42;101544.78;5048317;28;46117;-73
2023/09/26 12:10:09;;;;;;;;;5.00;5.00;;;;;25.85;44.99;101536.63;5053751;28;46416;-72
2023/09/26 12:12:36;;;;;;;;;2.67;2.67;;;;;25.85;45.11;101533.03;5071219;27;45426;-72
2023/09/26 12:15:18;;;;;;;;;5.00;5.00;;;;;25.86;44.83;101532.00;5071175;28;45553;-72
2023/09/26 12:17:43;;;;;;;;;5.00;2.00;;;;;25.86;44.82;101537.47;5068631;28;45506;-72
2023/09/26 12:20:09;;;;;;;;;3.67;3.67;;;;;25.85;45.15;101533.03;5071326;28;45446;-73
2023/09/26 12:22:35;;;;;;;;;4.00;4.00;;;;;25.83;44.92;101522.31;5055300;28;45459;-73
2023/09/26 12:25:01;;;;;;;;;3.33;3.33;;;;;25.85;45.29;101522.16;5071235;28;45790;-73
2023/09/26 12:27:26;;;;;;;;;3.00;2.00;;;;;25.86;45.26;101522.00;5055227;28;45374;-73
2023/09/26 12:29:51;;;;;;;;;4.00;4.00;;;;;25.85;44.90;101527.59;5070513;28;46480;-72
2023/09/26 12:32:17;;;;;;;;;6.00;3.00;;;;;25.87;45.43;101531.84;5067663;27;50957;-72
2023/09/26 12:34:42;;;;;;;;;6.33;4.33;;;;;25.86;45.01;101526.56;5071242;28;45628;-74
2023/09/26 12:37:07;;;;;;;;;5.00;5.00;;;;;25.85;44.79;101530.31;5074310;28;45460;-74
2023/09/26 12:39:33;;;;;;;;;5.00;4.00;;;;;25.79;45.22;101510.09;5074083;28;45591;-73
2023/09/26 12:41:58;;;;;;;;;4.00;4.00;;;;;25.82;45.40;101511.63;5070361;28;56063;-73
2023/09/26 12:44:23;;;;;;;;;4.00;4.00;;;;;25.86;44.89;101511.13;5071854;28;46939;-72
2023/09/26 12:46:49;;;;;;;;;4.00;3.00;;;;;25.86;44.82;101504.81;5073759;27;49288;-77
2023/09/26 12:49:14;;;;;;;;;4.00;4.00;;;;;25.86;45.02;101504.81;5071188;28;46224;-74
2023/09/26 12:51:39;;;;;;;;;5.67;5.67;;;;;25.90;44.93;101519.78;5070363;28;45408;-75
2023/09/26 12:54:05;;;;;;;;;4.00;4.00;;;;;25.89;45.10;101513.53;5070165;28;45499;-77
2023/09/26 12:56:30;;;;;;;;;3.67;3.67;;;;;25.91;45.11;101514.19;5070963;28;45646;-78
2023/09/26 12:58:56;;;;;;;;;2.00;2.00;;;;;25.92;45.07;101502.28;5073295;28;52060;-73
2023/09/26 13:01:21;;;;;;;;;4.67;3.33;;;;;26.00;44.88;101512.34;5071126;28;45378;-73
2023/09/26 13:03:47;;;;;;;;;4.33;2.67;;;;;26.04;45.35;101496.56;5069852;28;47889;-74
2023/09/26 13:06:12;;;;;;;;;3.33;3.33;;;;;26.12;45.44;101510.16;5073488;28;45578;-76
2023/09/26 13:08:38;;;;;;;;;2.67;2.67;;;;;26.17;45.17;101502.34;5072804;28;45592;-75
2023/09/26 13:11:03;;;;;;;;;5.00;4.00;;;;;26.25;44.85;101498.81;5062661;28;47362;-75
2023/09/26 13:13:29;;;;;;;;;7.00;5.33;;;;;26.34;45.08;101496.09;5060615;28;46805;-75
2023/09/26 13:15:55;;;;;;;;;4.00;4.00;;;;;26.40;45.67;101488.09;5074461;28;45848;-74
2023/09/26 13:18:21;;;;;;;;;5.00;5.00;;;;;26.45;45.42;101490.31;5072835;28;45518;-74
2023/09/26 13:20:46;;;;;;;;;3.00;3.00;;;;;26.51;45.47;101477.88;5054334;28;45721;-74
2023/09/26 13:23:11;;;;;;;;;3.33;3.33;;;;;26.57;44.88;101485.38;5068790;28;46537;-74
2023/09/26 13:25:37;;;;;;;;;4.00;4.00;;;;;26.61;44.77;101483.16;5072102;28;48087;-73
2023/09/26 13:28:02;;;;;;;;;3.00;3.00;;;;;26.64;45.34;101480.09;5059673;28;46955;-73
2023/09/26 13:30:28;;;;;;;;;6.33;4.00;;;;;26.63;45.34;101481.97;5055755;28;45443;-74
2023/09/26 13:32:54;;;;;;;;;5.00;5.00;;;;;26.66;45.24;101481.63;5067533;28;45393;-74
2023/09/26 13:35:19;;;;;;;;;3.00;3.00;;;;;26.68;45.58;101482.31;5071864;28;45388;-73
2023/09/26 13:37:46;;;;;;;;;6.00;3.00;;;;;26.70;45.43;101476.69;5051950;28;45700;-73
2023/09/26 13:40:11;;;;;;;;;2.00;2.00;;;;;26.77;45.20;101485.03;5073401;28;45787;-73
2023/09/26 13:42:37;;;;;;;;;5.67;4.00;;;;;26.80;45.80;101482.78;5072731;28;45708;-73
2023/09/26 13:45:03;;;;;;;;;2.67;2.67;;;;;26.86;45.63;101484.00;5073046;27;45834;-74
2023/09/26 13:47:28;;;;;;;;;3.00;3.00;;;;;26.86;45.18;101477.69;5070055;28;46026;-74
2023/09/26 13:49:53;;;;;;;;;4.33;4.33;;;;;26.91;45.76;101480.72;5070023;28;45681;-75
2023/09/26 13:52:18;;;;;;;;;4.33;3.33;;;;;26.93;44.96;101475.97;5069241;28;49481;-75
2023/09/26 13:54:44;;;;;;;;;4.00;3.67;;;;;26.91;45.46;101469.84;5069516;28;56188;-74
2023/09/26 13:57:09;;;;;;;;;3.00;3.00;;;;;26.93;45.13;101470.53;5066657;28;45498;-74
2023/09/26 13:59:35;;;;;;;;;3.33;3.33;;;;;26.90;45.65;101463.56;5073248;28;45517;-74
2023/09/26 14:02:00;;;;;;;;;6.67;5.00;;;;;26.90;44.87;101471.72;5070006;28;45682;-74
2023/09/26 14:04:25;;;;;;;;;4.00;4.00;;;;;26.94;45.49;101478.53;5070291;28;48635;-75
2023/09/26 14:06:51;;;;;;;;;3.67;3.00;;;;;26.96;45.46;101483.81;5073306;28;45490;-74
2023/09/26 14:09:16;;;;;;;;;4.33;4.00;;;;;27.01;45.24;101489.59;5067739;28;45458;-74
2023/09/26 14:11:41;;;;;;;;;3.33;3.33;;;;;27.02;45.31;101491.28;5064933;28;45514;-74
2023/09/26 14:14:06;;;;;;;;;4.00;4.00;;;;;27.04;45.30;101488.38;5071569;28;45446;-75
2023/09/26 14:16:32;;;;;;;;;3.00;3.00;;;;;27.04;45.42;101477.50;5065748;28;47042;-74
2023/09/26 14:18:57;;;;;;;;;6.00;4.67;;;;;27.06;44.95;101486.34;5071356;28;45345;-76
2023/09/26 14:21:23;;;;;;;;;4.00;4.00;;;;;27.06;44.94;101479.00;5072311;28;45683;-75
2023/09/26 14:23:49;;;;;;;;;2.33;2.33;;;;;27.09;45.53;101492.28;5072372;28;45558;-74
2023/09/26 14:26:14;;;;;;;;;3.00;3.00;;;;;27.06;45.70;101481.72;5072195;28;45691;-75
2023/09/26 14:28:40;;;;;;;;;3.00;3.00;;;;;27.11;45.79;101481.22;5067171;28;60356;-75
2023/09/26 14:31:10;;;;;;;;;4.67;4.67;;;;;27.14;45.60;101471.84;5072003;27;45487;-75
2023/09/26 14:33:36;;;;;;;;;5.00;3.33;;;;;27.14;45.30;101466.41;5062523;28;45725;-74
2023/09/26 14:36:02;;;;;;;;;3.67;3.67;;;;;27.17;44.27;101476.94;5072974;28;47023;-73
2023/09/26 14:38:27;;;;;;;;;4.33;4.33;;;;;27.10;43.55;101474.91;5068292;28;45469;-74
2023/09/26 14:40:53;;;;;;;;;3.67;3.67;;;;;27.02;43.48;101469.47;5067075;28;45697;-74
2023/09/26 14:43:19;;;;;;;;;6.00;4.00;;;;;26.95;43.41;101468.50;5071702;28;45455;-76
2023/09/26 14:45:44;;;;;;;;;4.00;4.00;;;;;26.86;43.42;101462.19;5071862;28;45712;-74
2023/09/26 14:48:10;;;;;;;;;3.33;3.33;;;;;26.80;42.97;101468.31;5071313;28;51174;-73
2023/09/26 14:50:35;;;;;;;;;3.00;3.00;;;;;26.70;43.84;101463.91;5073124;28;45673;-73
2023/09/26 14:53:00;;;;;;;;;2.33;2.33;;;;;26.68;43.89;101465.09;5052203;28;52870;-74
2023/09/26 14:55:26;;;;;;;;;5.00;5.00;;;;;26.62;43.67;101469.38;5067719;28;46244;-75
2023/09/26 14:57:51;;;;;;;;;3.33;3.33;;;;;26.58;43.92;101479.75;5071938;28;47247;-76
2023/09/26 15:00:16;;;;;;;;;5.00;3.33;;;;;26.55;43.85;101473.81;5071196;28;64922;-77
2023/09/26 15:02:42;;;;;;;;;4.33;4.00;;;;;26.48;43.33;101475.53;5065246;28;47130;-75
2023/09/26 15:05:07;;;;;;;;;6.00;5.00;;;;;26.47;43.53;101487.41;5062898;28;52188;-75
2023/09/26 15:07:34;;;;;;;;;6.00;5.00;;;;;26.41;43.52;101478.91;5064331;28;45537;-75
2023/09/26 15:10:00;;;;;;;;;3.00;3.00;;;;;26.39;43.58;101488.25;5073853;28;45481;-75
2023/09/26 15:12:25;;;;;;;;;4.67;4.67;;;;;26.36;44.30;101492.19;5074529;28;50661;-73
2023/09/26 15:14:50;;;;;;;;;4.33;4.33;;;;;26.34;43.80;101485.19;5063578;28;58645;-73
2023/09/26 15:17:16;;;;;;;;;3.00;3.00;;;;;26.27;44.08;101469.56;5074474;28;45528;-74
2023/09/26 15:19:43;;;;;;;;;3.00;3.00;;;;;26.28;43.78;101478.59;5073399;28;49049;-75
2023/09/26 15:22:09;;;;;;;;;6.67;5.00;;;;;26.27;44.15;101480.44;5074554;28;45466;-74
2023/09/26 15:24:34;;;;;;;;;2.67;2.67;;;;;26.22;44.17;101477.34;5074163;28;47001;-74
2023/09/26 15:26:59;;;;;;;;;4.00;4.00;;;;;26.24;43.58;101485.34;5058138;28;45820;-74
2023/09/26 15:29:25;;;;;;;;;3.67;3.67;;;;;26.20;44.18;101483.97;5073042;28;45768;-74
2023/09/26 15:31:50;;;;;;;;;4.33;4.33;;;;;26.21;43.98;101483.81;5074171;28;45485;-74
2023/09/26 15:34:16;;;;;;;;;4.00;4.00;;;;;26.16;43.95;101473.44;5071336;28;46015;-74
2023/09/26 15:36:41;;;;;;;;;4.67;4.67;;;;;26.18;43.67;101476.84;5071009;28;48453;-75
2023/09/26 15:39:10;;;;;;;;;4.33;3.67;;;;;26.14;43.92;101478.19;5051051;28;53471;-75
2023/09/26 15:41:35;;;;;;;;;4.33;3.00;;;;;26.09;44.09;101466.13;5067934;28;45904;-73
2023/09/26 15:44:00;;;;;;;;;3.00;3.00;;;;;26.13;43.81;101473.78;5075445;28;46174;-74
2023/09/26 15:46:26;;;;;;;;;3.33;3.33;;;;;26.14;43.86;101472.75;5072169;28;45773;-74
2023/09/26 15:48:52;;;;;;;;;3.00;3.00;;;;;26.14;43.83;101461.03;5074427;28;45392;-74
2023/09/26 15:51:18;;;;;;;;;3.00;3.00;;;;;26.12;44.28;101454.91;5065759;28;45499;-74
2023/09/26 15:53:45;;;;;;;;;3.00;2.33;;;;;26.13;44.01;101462.91;5074441;28;45540;-73
2023/09/26 15:56:13;;;;;;;;;4.00;4.00;;;;;26.13;44.01;101460.19;5072713;28;45510;-74
2023/09/26 15:58:39;;;;;;;;;4.67;4.67;;;;;26.09;43.64;101453.38;5049937;28;45716;-73
2023/09/26 16:01:06;;;;;;;;;4.33;3.33;;;;;26.14;44.20;101451.00;5073124;28;45600;-72
2023/09/26 16:03:32;;;;;;;;;4.00;4.00;;;;;26.20;44.46;101448.63;5066639;28;45531;-72
2023/09/26 16:05:57;;;;;;;;;4.67;4.67;;;;;26.24;44.32;101445.38;5055039;28;45487;-73
2023/09/26 16:08:23;;;;;;;;;3.00;3.00;;;;;26.29;43.94;101450.34;5074201;28;45742;-73
2023/09/26 16:10:48;;;;;;;;;3.00;3.00;;;;;26.30;44.01;101442.03;5072958;28;45592;-73
2023/09/26 16:13:16;;;;;;;;;4.00;3.33;;;;;26.35;43.88;101438.78;5072820;28;45549;-74
2023/09/26 16:15:45;;;;;;;;;4.67;4.00;;;;;26.42;44.42;101438.94;5073890;28;45541;-74
2023/09/26 16:18:11;;;;;;;;;3.67;3.00;;;;;26.43;44.55;101441.50;5073881;28;45741;-74
2023/09/26 16:20:37;;;;;;;;;3.00;3.00;;;;;26.49;44.00;101450.88;5065013;28;45732;-72
2023/09/26 16:23:03;;;;;;;;;7.33;4.33;;;;;26.48;44.36;101446.41;5070613;28;45527;-74
2023/09/26 16:25:28;;;;;;;;;4.00;3.00;;;;;26.52;44.50;101452.38;5051146;28;45619;-76
2023/09/26 16:27:54;;;;;;;;;4.00;4.00;;;;;26.63;44.52;101475.66;5066651;28;50869;-73
2023/09/26 16:30:19;;;;;;;;;4.00;3.00;;;;;26.62;44.31;101471.25;5070898;28;45491;-75
2023/09/26 16:32:44;;;;;;;;;3.33;3.00;;;;;26.67;44.32;101483.34;5065864;28;45629;-75
2023/09/26 16:35:10;;;;;;;;;6.00;4.00;;;;;26.70;44.32;101484.84;5059698;28;50249;-75
2023/09/26 16:37:35;;;;;;;;;3.00;3.00;;;;;26.72;44.31;101488.25;5068450;28;45541;-71
2023/09/26 16:40:00;;;;;;;;;2.67;2.67;;;;;26.69;44.58;101481.28;5071843;28;45630;-74
2023/09/26 16:42:26;;;;;;;;;2.33;2.33;;;;;26.73;44.51;101484.50;5068533;27;46020;-73
2023/09/26 16:44:52;;;;;;;;;4.67;2.33;;;;;26.77;44.04;101490.47;5072349;28;45683;-74
2023/09/26 16:47:17;;;;;;;;;4.00;4.00;;;;;26.77;44.17;101490.47;5068720;28;45555;-73
2023/09/26 16:49:43;;;;;;;;;5.33;5.33;;;;;26.79;44.46;101493.84;5069538;28;45574;-73
2023/09/26 16:52:09;;;;;;;;;4.00;4.00;;;;;26.81;44.61;101489.94;5063916;28;46243;-74
2023/09/26 16:54:34;;;;;;;;;5.00;5.00;;;;;26.81;43.98;101489.09;5050094;28;45563;-74
2023/09/26 16:56:59;;;;;;;;;4.00;4.00;;;;;26.80;43.27;101498.28;5070653;27;45881;-76
2023/09/26 16:59:25;;;;;;;;;3.00;3.00;;;;;26.73;42.99;101498.09;5069779;28;45446;-75
2023/09/26 17:01:50;;;;;;;;;3.00;3.00;;;;;26.69;43.45;101497.63;5072327;28;45406;-75
2023/09/26 17:04:16;;;;;;;;;5.00;5.00;;;;;26.65;43.35;101498.13;5070129;28;45685;-76
2023/09/26 17:06:43;;;;;;;;;4.00;4.00;;;;;26.64;43.64;101497.28;5067280;27;45336;-75
2023/09/26 17:09:08;;;;;;;;;4.33;4.33;;;;;26.61;43.03;101494.06;5064734;28;45697;-73
2023/09/26 17:11:34;;;;;;;;;5.00;5.00;;;;;26.56;43.32;101503.59;5073057;28;46152;-72
2023/09/26 17:13:59;;;;;;;;;5.00;3.00;;;;;26.52;43.29;101507.66;5072769;28;45996;-72
2023/09/26 17:16:24;;;;;;;;;7.33;5.00;;;;;26.47;43.70;101503.75;5063202;28;45508;-72
2023/09/26 17:18:50;;;;;;;;;3.00;3.00;;;;;26.48;43.31;101521.78;5068557;27;45468;-72
2023/09/26 17:21:15;;;;;;;;;5.33;4.00;;;;;26.40;43.27;101518.03;5075953;27;45448;-74
2023/09/26 17:23:41;;;;;;;;;6.67;5.00;;;;;26.40;43.24;101518.03;5070025;27;45639;-71
2023/09/26 17:26:06;;;;;;;;;4.00;4.00;;;;;26.37;43.74;101517.53;5072760;28;45793;-72
2023/09/26 17:28:32;;;;;;;;;3.67;3.67;;;;;26.29;43.68;101504.78;5060298;27;45493;-72
2023/09/26 18:33:14;;;;;;;;;6.00;4.67;;;;;22.97;50.55;101527.28;5114602;27;45654;-71
2023/09/26 18:35:39;;;;;;;;;3.00;3.00;;;;;23.07;50.48;101517.28;5106062;27;45525;-69
2023/09/26 18:38:05;;;;;;;;;3.67;3.00;;;;;23.23;50.31;101523.91;5108795;27;45408;-70